Time;durP1;ratioP1;P1;durP2;ratioP2;P2;SDS_P1;SDS_P2;PMS_P1;PMS_P2;Temp;Humidity;BMP_temperature;BMP_pressure;BME280_temperature;BME280_humidity;BME280_pressure;Samples;Min_cycle;Max_cycle;Signal;HPM_P1;HPM_P2
2023/05/06 00:00:57;;;;;;;6.93;5.83;;;9.30;99.90;;;;;;5223147;28;20183;-50
2023/05/06 00:03:28;;;;;;;7.90;6.57;;;9.20;99.90;;;;;;5224869;28;20178;-49
2023/05/06 00:05:59;;;;;;;8.13;6.20;;;9.20;99.90;;;;;;5219793;28;20242;-52
2023/05/06 00:08:30;;;;;;;8.90;7.50;;;9.20;99.90;;;;;;5221112;28;20211;-51
2023/05/06 00:11:01;;;;;;;14.10;8.10;;;9.10;99.90;;;;;;5216830;28;20443;-51
2023/05/06 00:13:31;;;;;;;16.43;10.80;;;8.90;99.90;;;;;;5222876;28;20206;-53
2023/05/06 00:16:02;;;;;;;14.40;10.17;;;8.90;99.90;;;;;;5218921;28;20183;-51
2023/05/06 00:18:33;;;;;;;19.90;12.90;;;8.70;99.90;;;;;;5218558;28;20333;-50
2023/05/06 00:21:03;;;;;;;23.97;13.90;;;8.70;99.90;;;;;;5224208;28;20200;-49
2023/05/06 00:23:34;;;;;;;24.53;14.57;;;8.70;99.90;;;;;;5223589;28;20551;-51
2023/05/06 00:26:05;;;;;;;37.80;16.33;;;8.70;99.90;;;;;;5225332;28;20655;-52
2023/05/06 00:28:36;;;;;;;24.13;14.50;;;8.70;99.90;;;;;;5221569;28;20218;-52
2023/05/06 00:31:08;;;;;;;23.47;14.63;;;8.70;99.90;;;;;;5231266;28;20439;-52
2023/05/06 00:33:39;;;;;;;26.43;17.20;;;8.60;99.90;;;;;;5223017;28;20210;-53
2023/05/06 00:36:10;;;;;;;26.97;15.30;;;8.60;99.90;;;;;;5220491;28;20422;-53
2023/05/06 00:38:40;;;;;;;30.53;14.50;;;8.60;99.90;;;;;;5224935;28;20449;-53
2023/05/06 00:41:11;;;;;;;29.10;17.63;;;8.60;99.90;;;;;;5220901;28;20270;-52
2023/05/06 00:43:42;;;;;;;26.90;17.10;;;8.60;99.90;;;;;;5218881;28;20191;-53
2023/05/06 00:46:15;;;;;;;37.70;20.83;;;8.60;99.90;;;;;;5222556;28;20191;-54
2023/05/06 00:48:46;;;;;;;29.07;19.23;;;8.50;99.90;;;;;;5221198;28;20214;-53
2023/05/06 00:51:17;;;;;;;51.60;21.90;;;8.60;99.90;;;;;;5221022;28;20448;-53
2023/05/06 00:53:49;;;;;;;40.20;20.63;;;8.60;99.90;;;;;;5218228;28;20877;-52
2023/05/06 00:56:19;;;;;;;37.80;22.53;;;8.50;99.90;;;;;;5222769;28;21024;-53
2023/05/06 00:58:50;;;;;;;39.03;21.20;;;8.60;99.90;;;;;;5219471;28;20548;-52
2023/05/06 01:01:25;;;;;;;39.43;21.27;;;8.60;99.90;;;;;;5217314;28;20210;-51
2023/05/06 01:03:57;;;;;;;45.13;21.70;;;8.60;99.90;;;;;;5217620;28;20434;-53
2023/05/06 01:06:52;;;;;;;38.17;19.20;;;8.60;99.90;;;;;;5221895;28;20777;-53
2023/05/06 01:10:21;;;;;;;46.37;21.43;;;8.50;99.90;;;;;;5215510;28;20819;-52
2023/05/06 01:12:55;;;;;;;30.77;18.60;;;8.50;99.90;;;;;;5161413;28;20460;-52
2023/05/06 01:15:32;;;;;;;26.33;18.30;;;8.50;99.90;;;;;;5214408;28;20440;-53
2023/05/06 01:18:09;;;;;;;32.47;20.83;;;8.50;99.90;;;;;;5222068;28;20421;-53
2023/05/06 01:20:42;;;;;;;32.57;18.73;;;8.40;99.90;;;;;;5220870;28;20524;-53
2023/05/06 01:23:13;;;;;;;42.17;23.53;;;8.40;99.90;;;;;;5224007;28;20818;-53
2023/05/06 01:25:44;;;;;;;46.73;20.57;;;8.40;99.90;;;;;;5221230;28;20809;-53
2023/05/06 01:28:15;;;;;;;41.70;22.40;;;8.40;99.90;;;;;;5223712;28;20491;-52
2023/05/06 01:30:58;;;;;;;40.27;21.57;;;8.30;99.90;;;;;;5219292;28;20965;-52
2023/05/06 01:33:36;;;;;;;34.60;18.97;;;8.30;99.90;;;;;;5224258;28;20202;-53
2023/05/06 01:36:18;;;;;;;39.40;19.70;;;8.20;99.90;;;;;;5223908;28;20429;-52
2023/05/06 01:38:53;;;;;;;31.23;18.77;;;8.10;99.90;;;;;;5224983;28;20964;-53
2023/05/06 01:41:26;;;;;;;27.80;16.80;;;8.10;99.90;;;;;;5224887;28;20498;-52
2023/05/06 01:43:59;;;;;;;29.93;19.37;;;8.00;99.90;;;;;;5220564;28;20449;-53
2023/05/06 01:46:30;;;;;;;44.63;22.00;;;8.00;99.90;;;;;;5221390;28;20635;-53
2023/05/06 01:49:04;;;;;;;27.80;17.63;;;8.00;99.90;;;;;;5222740;28;20469;-52
2023/05/06 01:51:35;;;;;;;46.63;23.20;;;8.00;99.90;;;;;;5223425;28;20425;-52
2023/05/06 01:54:06;;;;;;;38.50;19.27;;;7.90;99.90;;;;;;5225067;28;20465;-52
2023/05/06 01:56:37;;;;;;;38.27;19.10;;;7.90;99.90;;;;;;5223271;28;20485;-51
2023/05/06 01:59:07;;;;;;;33.17;18.07;;;7.90;99.90;;;;;;5224660;28;20617;-51
2023/05/06 02:01:38;;;;;;;35.57;18.77;;;7.90;99.90;;;;;;5226618;28;20205;-51
2023/05/06 02:04:09;;;;;;;39.73;20.00;;;7.80;99.90;;;;;;5226523;28;20179;-51
2023/05/06 02:06:39;;;;;;;34.87;17.97;;;7.80;99.90;;;;;;5225179;28;20183;-52
2023/05/06 02:09:10;;;;;;;41.47;19.67;;;7.80;99.90;;;;;;5223262;28;20202;-52
2023/05/06 02:11:40;;;;;;;47.13;18.33;;;7.80;99.90;;;;;;5223541;28;20228;-52
2023/05/06 02:14:11;;;;;;;33.43;18.90;;;7.80;99.90;;;;;;5220197;28;20555;-52
2023/05/06 02:16:42;;;;;;;38.63;18.87;;;7.80;99.90;;;;;;5223794;28;20211;-52
2023/05/06 02:19:12;;;;;;;37.20;17.77;;;7.80;99.90;;;;;;5220960;28;20207;-55
2023/05/06 02:21:43;;;;;;;36.40;19.40;;;7.70;99.90;;;;;;5222391;28;20266;-52
2023/05/06 02:24:13;;;;;;;37.93;19.27;;;7.70;99.90;;;;;;5224937;28;20201;-51
2023/05/06 02:26:44;;;;;;;33.37;16.47;;;7.60;99.90;;;;;;5222294;28;20194;-52
2023/05/06 02:29:15;;;;;;;39.00;17.43;;;7.60;99.90;;;;;;5225378;28;20207;-50
2023/05/06 02:31:45;;;;;;;41.20;19.40;;;7.60;99.90;;;;;;5226545;28;20253;-51
2023/05/06 02:34:16;;;;;;;39.63;18.40;;;7.60;99.90;;;;;;5223137;28;20229;-52
2023/05/06 02:36:46;;;;;;;34.20;17.97;;;7.60;99.90;;;;;;5225022;28;20670;-52
2023/05/06 02:39:17;;;;;;;45.83;20.97;;;7.50;99.90;;;;;;5221571;28;20203;-51
2023/05/06 02:41:48;;;;;;;41.87;19.30;;;7.50;99.90;;;;;;5220624;28;20214;-52
2023/05/06 02:44:18;;;;;;;36.20;19.80;;;7.50;99.90;;;;;;5218378;28;20222;-52
2023/05/06 02:46:50;;;;;;;45.00;19.73;;;7.50;99.90;;;;;;5222947;28;20580;-52
2023/05/06 02:49:20;;;;;;;31.07;17.37;;;7.50;99.90;;;;;;5216686;28;20208;-50
2023/05/06 02:51:51;;;;;;;35.67;18.67;;;7.50;99.90;;;;;;5218930;28;20455;-52
2023/05/06 02:54:21;;;;;;;48.67;20.77;;;7.40;99.90;;;;;;5218290;28;20206;-51
2023/05/06 02:56:52;;;;;;;32.70;17.67;;;7.40;99.90;;;;;;5222839;28;20298;-51
2023/05/06 02:59:23;;;;;;;46.47;21.10;;;7.40;99.90;;;;;;5217308;28;20201;-50
2023/05/06 03:01:53;;;;;;;36.53;19.67;;;7.40;99.90;;;;;;5220893;28;20666;-51
2023/05/06 03:04:24;;;;;;;37.50;18.53;;;7.30;99.90;;;;;;5217011;28;20236;-50
2023/05/06 03:06:55;;;;;;;40.93;19.80;;;7.30;99.90;;;;;;5222655;28;20928;-52
2023/05/06 03:09:25;;;;;;;38.07;19.70;;;7.20;99.90;;;;;;5221493;28;20214;-49
2023/05/06 03:11:56;;;;;;;42.43;20.23;;;7.20;99.90;;;;;;5221196;28;20733;-50
2023/05/06 03:14:27;;;;;;;45.87;22.87;;;7.20;99.90;;;;;;5220525;28;20752;-50
2023/05/06 03:16:57;;;;;;;35.03;19.53;;;7.20;99.90;;;;;;5224498;28;20186;-51
2023/05/06 03:19:28;;;;;;;54.20;22.67;;;7.20;99.90;;;;;;5222309;28;20217;-51
2023/05/06 03:21:59;;;;;;;37.93;19.27;;;7.20;99.90;;;;;;5220266;28;20655;-53
2023/05/06 03:24:29;;;;;;;47.27;19.03;;;7.20;99.90;;;;;;5223068;28;20186;-50
2023/05/06 03:27:00;;;;;;;33.47;18.97;;;7.10;99.90;;;;;;5219832;28;20198;-51
2023/05/06 03:29:31;;;;;;;34.90;17.30;;;7.10;99.90;;;;;;5218929;28;20561;-50
2023/05/06 03:32:02;;;;;;;35.70;19.30;;;7.10;99.90;;;;;;5219014;28;20444;-51
2023/05/06 03:34:33;;;;;;;55.00;23.40;;;7.10;99.90;;;;;;5219513;28;20206;-52
2023/05/06 03:37:04;;;;;;;47.90;20.73;;;7.10;99.90;;;;;;5224257;28;21018;-50
2023/05/06 03:39:34;;;;;;;41.20;21.17;;;7.10;99.90;;;;;;5220761;28;20593;-54
2023/05/06 03:42:05;;;;;;;35.23;19.30;;;7.10;99.90;;;;;;5221132;28;20553;-51
2023/05/06 03:44:36;;;;;;;40.87;20.63;;;7.00;99.90;;;;;;5206571;28;20190;-51
2023/05/06 03:47:06;;;;;;;30.80;18.00;;;7.00;99.90;;;;;;5220257;28;20183;-50
2023/05/06 03:49:37;;;;;;;41.83;21.80;;;7.00;99.90;;;;;;5221443;28;20233;-50
2023/05/06 03:52:07;;;;;;;40.10;19.67;;;7.00;99.90;;;;;;5220526;28;20197;-48
2023/05/06 03:54:38;;;;;;;41.07;20.00;;;7.00;99.90;;;;;;5222210;28;20265;-49
2023/05/06 03:57:09;;;;;;;55.87;23.33;;;6.90;99.90;;;;;;5222670;28;20209;-49
2023/05/06 03:59:39;;;;;;;45.07;21.00;;;6.90;99.90;;;;;;5221477;28;20198;-49
2023/05/06 04:02:10;;;;;;;49.47;21.20;;;6.90;99.90;;;;;;5222153;28;20179;-49
2023/05/06 04:04:40;;;;;;;41.30;20.87;;;7.00;99.90;;;;;;5218131;28;20183;-53
2023/05/06 04:07:11;;;;;;;35.93;19.67;;;6.90;99.90;;;;;;5216992;28;20557;-50
2023/05/06 04:09:42;;;;;;;46.27;22.40;;;6.90;99.90;;;;;;5225048;28;20198;-49
2023/05/06 04:12:13;;;;;;;47.90;23.00;;;6.90;99.90;;;;;;5205436;28;20240;-52
2023/05/06 04:14:43;;;;;;;47.60;23.43;;;6.80;99.90;;;;;;5219760;28;20183;-49
2023/05/06 04:17:14;;;;;;;38.33;21.23;;;6.80;99.90;;;;;;5220977;28;20227;-50
2023/05/06 04:19:44;;;;;;;33.10;18.20;;;6.80;99.90;;;;;;5214889;28;20295;-52
2023/05/06 04:22:16;;;;;;;52.60;25.00;;;6.80;99.90;;;;;;5211890;28;20190;-51
2023/05/06 04:24:47;;;;;;;47.07;23.60;;;6.80;99.90;;;;;;5217643;28;20236;-50
2023/05/06 04:27:17;;;;;;;61.80;24.30;;;6.80;99.90;;;;;;5221104;28;20446;-50
2023/05/06 04:29:48;;;;;;;54.97;24.53;;;6.90;99.90;;;;;;5220251;28;20193;-50
2023/05/06 04:32:19;;;;;;;42.37;21.20;;;6.80;99.90;;;;;;5222549;28;20680;-51
2023/05/06 04:34:51;;;;;;;60.13;24.60;;;6.90;99.90;;;;;;5218646;28;20187;-50
2023/05/06 04:37:22;;;;;;;44.80;23.77;;;6.90;99.90;;;;;;5219689;28;21088;-53
2023/05/06 04:39:53;;;;;;;47.90;24.97;;;6.90;99.90;;;;;;5218640;28;20454;-52
2023/05/06 04:42:23;;;;;;;35.90;20.37;;;6.90;99.90;;;;;;5222382;28;20199;-50
2023/05/06 04:44:54;;;;;;;37.80;20.43;;;6.80;99.90;;;;;;5218890;28;20437;-51
2023/05/06 04:47:25;;;;;;;37.70;21.10;;;6.90;99.90;;;;;;5221992;28;20194;-50
2023/05/06 04:49:56;;;;;;;60.20;26.30;;;6.80;99.90;;;;;;5218739;28;20225;-52
2023/05/06 04:52:26;;;;;;;41.73;22.87;;;6.90;99.90;;;;;;5217383;28;20508;-51
2023/05/06 04:54:57;;;;;;;42.03;22.60;;;6.90;99.90;;;;;;5222433;28;20194;-51
2023/05/06 04:57:28;;;;;;;37.70;21.43;;;7.00;99.90;;;;;;5222024;28;20720;-50
2023/05/06 04:59:59;;;;;;;43.07;21.97;;;7.00;99.90;;;;;;5224044;28;20206;-51
2023/05/06 05:02:30;;;;;;;39.83;21.90;;;7.00;99.90;;;;;;5224092;28;20443;-51
2023/05/06 05:05:00;;;;;;;40.13;19.40;;;7.00;99.90;;;;;;5225056;28;20198;-50
2023/05/06 05:07:31;;;;;;;48.20;22.10;;;7.00;99.90;;;;;;5225065;28;20238;-52
2023/05/06 05:10:02;;;;;;;50.97;23.50;;;6.90;99.90;;;;;;5222449;28;20211;-50
2023/05/06 05:12:32;;;;;;;54.03;22.37;;;6.90;99.90;;;;;;5226238;28;20199;-51
2023/05/06 05:15:03;;;;;;;34.60;19.30;;;7.00;99.90;;;;;;5220354;28;20189;-52
2023/05/06 05:17:34;;;;;;;39.90;22.10;;;7.00;99.90;;;;;;5225594;28;20182;-50
2023/05/06 05:20:05;;;;;;;41.87;20.00;;;7.00;99.90;;;;;;5222078;28;20506;-53
2023/05/06 05:22:36;;;;;;;36.27;20.73;;;7.00;99.90;;;;;;5222721;28;20311;-50
2023/05/06 05:25:07;;;;;;;34.90;17.43;;;6.90;99.90;;;;;;5221443;28;20512;-52
2023/05/06 05:27:37;;;;;;;44.03;22.37;;;6.90;99.90;;;;;;5224129;28;20187;-51
2023/05/06 05:30:09;;;;;;;34.00;19.33;;;6.90;99.90;;;;;;5224954;28;20199;-51
2023/05/06 05:32:40;;;;;;;41.20;21.17;;;6.90;99.90;;;;;;5222463;28;20218;-51
2023/05/06 05:35:11;;;;;;;44.33;22.17;;;6.90;99.90;;;;;;5223000;28;20440;-52
2023/05/06 05:37:41;;;;;;;57.83;24.20;;;6.90;99.90;;;;;;5222952;28;20206;-52
2023/05/06 05:40:12;;;;;;;41.43;21.80;;;7.00;99.90;;;;;;5227592;28;20946;-51
2023/05/06 05:42:43;;;;;;;45.20;21.53;;;7.10;99.90;;;;;;5227301;28;20183;-51
2023/05/06 05:45:14;;;;;;;39.93;21.27;;;7.10;99.90;;;;;;5227003;28;20187;-52
2023/05/06 05:47:44;;;;;;;42.17;18.97;;;7.10;99.90;;;;;;5227165;28;20184;-52
2023/05/06 05:50:15;;;;;;;47.37;18.47;;;7.20;99.90;;;;;;5223426;28;20789;-52
2023/05/06 05:52:45;;;;;;;29.67;15.73;;;7.10;99.90;;;;;;5226204;28;20199;-51
2023/05/06 05:55:16;;;;;;;33.47;18.40;;;7.10;99.90;;;;;;5219480;28;20675;-51
2023/05/06 05:57:47;;;;;;;42.30;19.70;;;7.00;99.90;;;;;;5223177;28;20187;-54
2023/05/06 06:00:18;;;;;;;33.07;18.73;;;7.00;99.90;;;;;;5222994;28;20202;-51
2023/05/06 06:02:48;;;;;;;40.40;20.90;;;6.90;99.90;;;;;;5213230;28;20206;-51
2023/05/06 06:05:19;;;;;;;39.47;20.50;;;7.00;99.90;;;;;;5222170;28;20459;-53
2023/05/06 06:07:49;;;;;;;36.20;18.47;;;7.00;99.90;;;;;;5213834;28;20269;-50
2023/05/06 06:10:20;;;;;;;44.27;20.37;;;7.00;99.90;;;;;;5207804;28;20224;-51
2023/05/06 06:12:51;;;;;;;42.33;21.77;;;7.00;99.90;;;;;;5214916;28;20715;-52
2023/05/06 06:15:21;;;;;;;41.80;20.87;;;7.00;99.90;;;;;;5216454;28;21360;-52
2023/05/06 06:17:53;;;;;;;34.87;20.00;;;7.10;99.90;;;;;;5223346;28;20634;-50
2023/05/06 06:20:24;;;;;;;37.90;20.97;;;7.00;99.90;;;;;;5214405;28;21487;-52
2023/05/06 06:22:55;;;;;;;46.30;20.50;;;7.10;99.90;;;;;;5219528;28;20495;-52
2023/05/06 06:25:25;;;;;;;33.00;18.93;;;7.10;99.90;;;;;;5215559;28;20205;-52
2023/05/06 06:27:56;;;;;;;32.40;17.70;;;7.10;99.90;;;;;;5222473;28;20187;-51
2023/05/06 06:30:27;;;;;;;44.57;20.90;;;7.00;99.90;;;;;;5213401;28;20225;-52
2023/05/06 06:33:00;;;;;;;29.40;17.30;;;7.10;99.90;;;;;;5218266;28;20195;-51
2023/05/06 06:35:30;;;;;;;29.40;16.47;;;7.10;99.90;;;;;;5215311;28;20190;-51
2023/05/06 06:38:01;;;;;;;31.80;14.87;;;7.10;99.90;;;;;;5219413;28;20460;-51
2023/05/06 06:40:32;;;;;;;27.10;16.40;;;7.10;99.90;;;;;;5215225;28;20344;-53
2023/05/06 06:43:03;;;;;;;24.50;16.13;;;7.10;99.90;;;;;;5213141;28;20536;-51
2023/05/06 06:45:33;;;;;;;25.60;16.20;;;7.10;99.90;;;;;;5211851;28;20204;-51
2023/05/06 06:48:04;;;;;;;28.33;16.23;;;7.10;99.90;;;;;;5214724;28;20186;-50
2023/05/06 06:50:34;;;;;;;32.50;17.20;;;7.10;99.90;;;;;;5216476;28;20650;-53
2023/05/06 06:53:05;;;;;;;27.60;16.73;;;7.10;99.90;;;;;;5222026;28;20203;-50
2023/05/06 06:55:36;;;;;;;39.73;18.17;;;7.00;99.90;;;;;;5217739;28;20202;-54
2023/05/06 06:58:06;;;;;;;35.37;16.97;;;7.10;99.90;;;;;;5221704;28;20659;-50
2023/05/06 07:00:37;;;;;;;28.63;18.03;;;7.20;99.90;;;;;;5217163;28;20210;-51
2023/05/06 07:03:07;;;;;;;27.53;15.60;;;7.20;99.90;;;;;;5212058;28;20597;-51
2023/05/06 07:05:38;;;;;;;24.50;15.73;;;7.10;99.90;;;;;;5220566;28;20179;-52
2023/05/06 07:08:09;;;;;;;30.20;17.63;;;7.10;99.90;;;;;;5220181;28;20649;-53
2023/05/06 07:10:40;;;;;;;32.83;17.63;;;7.00;99.90;;;;;;5214256;28;20240;-54
2023/05/06 07:13:11;;;;;;;29.30;16.60;;;7.10;99.90;;;;;;5220348;28;20468;-54
2023/05/06 07:15:41;;;;;;;33.10;18.63;;;7.00;99.90;;;;;;5214490;28;20183;-53
2023/05/06 07:18:12;;;;;;;40.63;19.03;;;7.10;99.90;;;;;;5220780;28;20183;-54
2023/05/06 07:20:43;;;;;;;40.83;18.83;;;7.10;99.90;;;;;;5212995;28;20274;-54
2023/05/06 07:23:13;;;;;;;19.63;15.07;;;7.10;99.90;;;;;;5214762;28;20194;-52
2023/05/06 07:25:44;;;;;;;27.10;15.80;;;7.10;99.90;;;;;;5211986;28;20191;-51
2023/05/06 07:28:14;;;;;;;30.20;15.63;;;7.10;99.90;;;;;;5214202;28;20225;-53
2023/05/06 07:30:45;;;;;;;22.77;13.47;;;7.10;99.90;;;;;;5212475;28;20189;-53
2023/05/06 07:33:16;;;;;;;17.90;13.47;;;7.10;99.90;;;;;;5215153;28;20218;-50
2023/05/06 07:35:46;;;;;;;18.37;12.87;;;7.20;99.90;;;;;;5213845;28;20438;-52
2023/05/06 07:38:21;;;;;;;17.40;11.73;;;7.20;99.90;;;;;;5217167;28;20182;-52
2023/05/06 07:40:51;;;;;;;13.90;11.23;;;7.30;99.90;;;;;;5215836;28;20178;-52
2023/05/06 07:43:22;;;;;;;18.13;10.60;;;7.40;99.90;;;;;;5212336;28;20437;-55
2023/05/06 07:46:01;;;;;;;15.07;10.67;;;7.40;99.90;;;;;;5218390;28;20183;-51
2023/05/06 07:48:34;;;;;;;13.63;10.83;;;7.40;99.90;;;;;;5211664;28;20224;-53
2023/05/06 07:51:05;;;;;;;18.23;10.43;;;7.50;99.90;;;;;;5213356;28;20438;-52
2023/05/06 07:53:38;;;;;;;20.00;11.60;;;7.50;99.90;;;;;;5210453;28;20821;-52
2023/05/06 07:56:09;;;;;;;13.83;10.90;;;7.50;99.90;;;;;;5212401;28;20183;-54
2023/05/06 07:58:40;;;;;;;22.80;12.67;;;7.50;99.90;;;;;;5212135;28;20806;-53
2023/05/06 08:01:11;;;;;;;13.40;10.87;;;7.60;99.90;;;;;;5211139;28;20186;-53
2023/05/06 08:03:43;;;;;;;22.23;12.47;;;7.60;99.90;;;;;;5215969;28;20324;-54
2023/05/06 08:06:13;;;;;;;17.50;11.30;;;7.60;99.90;;;;;;5214610;28;20202;-53
2023/05/06 08:08:45;;;;;;;16.73;11.27;;;7.70;99.90;;;;;;5217557;28;20488;-52
2023/05/06 08:11:16;;;;;;;17.53;13.03;;;7.60;99.90;;;;;;5206425;28;20647;-54
2023/05/06 08:13:47;;;;;;;15.23;12.30;;;7.70;99.90;;;;;;5207966;28;20481;-52
2023/05/06 08:16:18;;;;;;;22.37;12.17;;;7.60;99.90;;;;;;5217659;28;20433;-53
2023/05/06 08:18:48;;;;;;;21.77;12.73;;;7.70;99.90;;;;;;5210328;28;20706;-53
2023/05/06 08:21:19;;;;;;;14.83;11.97;;;7.70;99.90;;;;;;5206596;28;20274;-53
2023/05/06 08:23:50;;;;;;;21.00;12.47;;;7.80;99.90;;;;;;5211198;28;20187;-53
2023/05/06 08:26:20;;;;;;;19.20;12.47;;;7.80;99.90;;;;;;5209825;28;20694;-52
2023/05/06 08:28:51;;;;;;;15.60;12.57;;;7.90;99.90;;;;;;5207444;28;21227;-53
2023/05/06 08:31:22;;;;;;;14.90;12.20;;;8.00;99.90;;;;;;5210770;28;20187;-52
2023/05/06 08:33:52;;;;;;;19.70;14.00;;;8.00;99.90;;;;;;5212482;28;20199;-55
2023/05/06 08:36:23;;;;;;;12.87;11.37;;;8.00;99.90;;;;;;5217414;28;20191;-50
2023/05/06 08:38:54;;;;;;;23.60;13.63;;;8.00;99.90;;;;;;5208412;28;20294;-54
2023/05/06 08:41:27;;;;;;;23.97;13.57;;;8.00;99.90;;;;;;5218031;28;20187;-53
2023/05/06 08:44:00;;;;;;;19.60;13.67;;;8.00;99.90;;;;;;5211705;28;20610;-53
2023/05/06 08:46:31;;;;;;;20.57;12.67;;;8.00;99.90;;;;;;5218160;28;20773;-52
2023/05/06 08:49:02;;;;;;;20.80;13.23;;;8.00;99.90;;;;;;5224240;28;20505;-50
2023/05/06 08:51:34;;;;;;;16.70;12.60;;;8.00;99.90;;;;;;5221596;28;20236;-56
2023/05/06 08:54:06;;;;;;;21.23;13.40;;;8.10;99.90;;;;;;5222159;28;20211;-54
2023/05/06 08:56:39;;;;;;;20.10;13.53;;;8.10;99.90;;;;;;5210168;28;20937;-52
2023/05/06 08:59:12;;;;;;;19.03;13.57;;;8.00;99.90;;;;;;5214775;28;20454;-53
2023/05/06 09:01:43;;;;;;;18.97;13.87;;;8.00;99.90;;;;;;5217997;28;20422;-54
2023/05/06 09:04:17;;;;;;;19.60;14.60;;;8.10;99.90;;;;;;5215928;28;20445;-54
2023/05/06 09:06:47;;;;;;;14.87;13.03;;;8.10;99.90;;;;;;5224110;28;20191;-53
2023/05/06 09:09:18;;;;;;;19.13;14.70;;;8.10;99.90;;;;;;5214396;28;20899;-53
2023/05/06 09:11:56;;;;;;;15.87;12.20;;;8.10;99.90;;;;;;5215612;28;20269;-52
2023/05/06 09:14:26;;;;;;;13.87;11.90;;;8.10;99.90;;;;;;5216113;28;20317;-54
2023/05/06 09:16:57;;;;;;;15.83;13.00;;;8.10;99.90;;;;;;5214185;28;20529;-53
2023/05/06 09:19:28;;;;;;;15.43;12.40;;;8.20;99.90;;;;;;5214761;28;20207;-54
2023/05/06 09:22:00;;;;;;;16.30;12.00;;;8.30;99.90;;;;;;5215611;28;20938;-53
2023/05/06 09:24:31;;;;;;;15.07;11.83;;;8.30;99.90;;;;;;5216004;28;21116;-54
2023/05/06 09:27:02;;;;;;;15.53;9.90;;;8.30;99.90;;;;;;5218343;28;20473;-53
2023/05/06 09:29:33;;;;;;;17.83;12.03;;;8.30;99.90;;;;;;5218209;28;20470;-55
2023/05/06 09:32:07;;;;;;;12.97;11.07;;;8.30;99.90;;;;;;5213951;28;20524;-54
2023/05/06 09:34:40;;;;;;;13.93;10.97;;;8.20;99.90;;;;;;5214579;28;20513;-52
2023/05/06 09:37:11;;;;;;;20.93;11.40;;;8.20;99.90;;;;;;5217309;28;20441;-54
2023/05/06 09:39:42;;;;;;;12.97;11.03;;;8.20;99.90;;;;;;5219841;28;20461;-54
2023/05/06 09:42:13;;;;;;;11.90;10.80;;;8.20;99.90;;;;;;5215489;28;20652;-59
2023/05/06 09:44:44;;;;;;;15.10;11.10;;;8.20;99.90;;;;;;5221527;28;20648;-53
2023/05/06 09:47:16;;;;;;;11.93;9.93;;;8.20;99.90;;;;;;5223164;28;20470;-53
2023/05/06 09:49:48;;;;;;;12.90;10.80;;;8.30;99.90;;;;;;5222225;28;20449;-55
2023/05/06 09:52:19;;;;;;;13.00;10.83;;;8.30;99.90;;;;;;5219589;28;20434;-52
2023/05/06 09:54:52;;;;;;;12.60;10.60;;;8.30;99.90;;;;;;5220643;28;20497;-52
2023/05/06 09:57:23;;;;;;;16.70;10.93;;;8.40;99.90;;;;;;5216280;28;20806;-54
2023/05/06 09:59:56;;;;;;;13.73;10.03;;;8.40;99.90;;;;;;5218179;28;20985;-52
2023/05/06 10:02:27;;;;;;;11.03;9.93;;;8.40;99.90;;;;;;5216351;28;20437;-53
2023/05/06 10:04:59;;;;;;;11.33;10.13;;;8.40;99.90;;;;;;5219072;28;20771;-52
2023/05/06 10:07:31;;;;;;;11.27;9.97;;;8.40;99.90;;;;;;5222965;28;20433;-52
2023/05/06 10:10:03;;;;;;;11.27;10.03;;;8.40;99.90;;;;;;5209655;28;20472;-53
2023/05/06 10:12:35;;;;;;;14.13;10.53;;;8.40;99.90;;;;;;5229168;28;20430;-52
2023/05/06 10:15:06;;;;;;;15.30;11.00;;;8.40;99.90;;;;;;5220619;28;20491;-51
2023/05/06 10:17:39;;;;;;;10.57;9.47;;;8.50;99.90;;;;;;5220283;28;20499;-51
2023/05/06 10:20:12;;;;;;;14.40;9.93;;;8.50;99.90;;;;;;5224096;28;20441;-52
2023/05/06 10:22:58;;;;;;;10.50;9.47;;;8.40;99.90;;;;;;5222173;28;20525;-51
2023/05/06 10:25:36;;;;;;;16.00;9.63;;;8.40;99.90;;;;;;5219599;28;20437;-51
2023/05/06 10:28:08;;;;;;;9.63;8.57;;;8.40;99.90;;;;;;5217160;28;20786;-52
2023/05/06 10:30:40;;;;;;;9.57;8.47;;;8.30;99.90;;;;;;5221345;28;20430;-52
2023/05/06 10:33:13;;;;;;;9.03;8.23;;;8.40;99.90;;;;;;5216126;28;20997;-50
2023/05/06 10:35:49;;;;;;;11.73;8.37;;;8.40;99.90;;;;;;5215049;28;20897;-54
2023/05/06 10:38:53;;;;;;;9.60;8.53;;;8.40;99.90;;;;;;5225130;28;20438;-52
2023/05/06 10:41:26;;;;;;;14.87;9.07;;;8.40;99.90;;;;;;5203667;28;20434;-53
2023/05/06 10:43:58;;;;;;;8.10;7.20;;;8.50;99.90;;;;;;5235890;28;20811;-52
2023/05/06 10:46:29;;;;;;;8.00;7.30;;;8.40;99.90;;;;;;5231012;28;21104;-53
2023/05/06 10:49:03;;;;;;;14.83;8.70;;;8.40;99.90;;;;;;5214684;28;20460;-52
2023/05/06 10:51:37;;;;;;;11.80;7.47;;;8.50;99.90;;;;;;5215247;28;20444;-51
2023/05/06 10:54:09;;;;;;;8.43;7.53;;;8.50;99.90;;;;;;5220817;28;20452;-50
2023/05/06 10:56:49;;;;;;;11.70;7.30;;;8.50;99.90;;;;;;5222286;28;20438;-52
2023/05/06 10:59:23;;;;;;;10.87;6.80;;;8.50;99.90;;;;;;5216423;28;21086;-52
2023/05/06 11:02:03;;;;;;;7.60;7.00;;;8.50;99.90;;;;;;5215764;28;20520;-52
2023/05/06 11:04:34;;;;;;;6.50;5.90;;;8.50;99.90;;;;;;5219415;28;20433;-51
2023/05/06 11:07:13;;;;;;;11.20;6.43;;;8.60;99.90;;;;;;5214290;28;20453;-51
2023/05/06 11:10:05;;;;;;;5.70;5.20;;;8.70;99.90;;;;;;5215882;28;20220;-52
2023/05/06 11:12:49;;;;;;;7.60;5.00;;;8.70;99.90;;;;;;5218216;28;20571;-55
2023/05/06 11:15:40;;;;;;;6.77;5.00;;;8.70;99.90;;;;;;5219766;28;20797;-52
2023/05/06 11:18:30;;;;;;;5.57;5.07;;;8.70;99.90;;;;;;5217155;28;20497;-51
2023/05/06 11:21:01;;;;;;;5.80;5.40;;;8.70;99.90;;;;;;5211559;28;20461;-53
2023/05/06 11:23:41;;;;;;;4.43;4.23;;;8.70;99.90;;;;;;5212058;28;20545;-53
2023/05/06 11:26:13;;;;;;;4.53;4.27;;;8.70;99.90;;;;;;5218642;28;20616;-53
2023/05/06 11:28:45;;;;;;;4.53;4.13;;;8.70;99.90;;;;;;5215478;28;20454;-52
2023/05/06 11:31:16;;;;;;;4.30;4.10;;;8.70;99.90;;;;;;5213292;28;20449;-53
2023/05/06 11:33:49;;;;;;;4.50;4.27;;;8.60;99.90;;;;;;5218872;28;20526;-51
2023/05/06 11:36:20;;;;;;;4.47;4.17;;;8.60;99.90;;;;;;5207831;28;20458;-54
2023/05/06 11:38:51;;;;;;;5.17;4.67;;;8.60;99.90;;;;;;5215462;28;20449;-53
2023/05/06 11:41:22;;;;;;;5.90;5.40;;;8.50;99.90;;;;;;5221949;28;20437;-52
2023/05/06 11:43:53;;;;;;;4.67;4.27;;;8.60;99.90;;;;;;5217543;28;20985;-54
2023/05/06 11:46:32;;;;;;;5.10;4.63;;;8.50;99.90;;;;;;5216735;28;20204;-52
2023/05/06 11:49:02;;;;;;;4.63;4.33;;;8.50;99.90;;;;;;5232045;28;20511;-51
2023/05/06 11:51:33;;;;;;;5.00;4.60;;;8.50;99.90;;;;;;5214466;28;20703;-52
2023/05/06 11:54:08;;;;;;;5.13;4.40;;;8.60;99.90;;;;;;5221810;28;20201;-52
2023/05/06 11:56:44;;;;;;;4.33;4.10;;;8.60;99.90;;;;;;5221425;28;20217;-54
2023/05/06 11:59:17;;;;;;;11.40;5.17;;;8.70;99.90;;;;;;5205804;28;20461;-56
2023/05/06 12:01:48;;;;;;;5.40;4.90;;;8.80;99.90;;;;;;5212878;28;20517;-54
2023/05/06 12:04:19;;;;;;;4.03;3.73;;;8.80;99.90;;;;;;5218308;28;20501;-54
2023/05/06 12:06:50;;;;;;;4.77;4.47;;;8.80;99.90;;;;;;5218853;28;20537;-51
2023/05/06 12:09:22;;;;;;;3.73;3.47;;;8.70;99.90;;;;;;5198302;28;20208;-52
2023/05/06 12:11:53;;;;;;;6.07;3.90;;;8.70;99.90;;;;;;5231222;28;20183;-54
2023/05/06 12:14:25;;;;;;;5.23;4.87;;;8.60;99.90;;;;;;5215242;28;20477;-53
2023/05/06 12:16:56;;;;;;;7.80;6.37;;;8.60;99.90;;;;;;5214638;28;20833;-55
2023/05/06 12:19:28;;;;;;;8.17;6.50;;;8.60;99.90;;;;;;5217704;28;20485;-54
2023/05/06 12:22:14;;;;;;;4.90;4.60;;;8.60;99.90;;;;;;5212787;28;20230;-55
2023/05/06 12:24:48;;;;;;;7.53;4.67;;;8.70;99.90;;;;;;5209913;28;20959;-53
2023/05/06 12:27:29;;;;;;;3.73;3.53;;;8.70;99.90;;;;;;5212137;28;20541;-53
2023/05/06 12:30:02;;;;;;;3.87;3.60;;;8.70;99.90;;;;;;5213698;28;20545;-53
2023/05/06 12:32:33;;;;;;;3.63;3.53;;;8.60;99.90;;;;;;5209051;28;20528;-53
2023/05/06 12:35:06;;;;;;;6.17;5.57;;;8.50;99.90;;;;;;5212247;28;20445;-53
2023/05/06 12:37:36;;;;;;;5.57;5.00;;;8.50;99.90;;;;;;5212639;28;20442;-53
2023/05/06 12:40:16;;;;;;;3.70;3.50;;;8.60;99.90;;;;;;5216620;28;20461;-53
2023/05/06 12:42:56;;;;;;;3.77;3.47;;;8.70;99.90;;;;;;5216328;28;20189;-52
2023/05/06 12:45:27;;;;;;;2.43;2.33;;;8.70;99.90;;;;;;5210933;28;20587;-55
2023/05/06 12:48:04;;;;;;;3.57;3.40;;;8.70;99.90;;;;;;5211735;28;20910;-51
2023/05/06 12:50:41;;;;;;;3.90;3.70;;;8.60;99.90;;;;;;5222033;28;20190;-52
2023/05/06 12:53:12;;;;;;;3.40;3.20;;;8.70;99.90;;;;;;5216696;28;20463;-55
2023/05/06 12:55:44;;;;;;;3.73;3.60;;;8.70;99.90;;;;;;5216502;28;20605;-55
2023/05/06 12:58:18;;;;;;;3.50;3.30;;;8.70;99.90;;;;;;5211478;28;20183;-54
2023/05/06 13:00:49;;;;;;;3.57;3.47;;;8.70;99.90;;;;;;5217269;28;20603;-55
2023/05/06 13:03:19;;;;;;;3.27;3.07;;;8.70;99.90;;;;;;5213082;28;20554;-55
2023/05/06 13:05:50;;;;;;;4.63;3.90;;;8.70;99.90;;;;;;5212704;28;20186;-53